Time;durP1;ratioP1;P1;durP2;ratioP2;P2;SDS_P1;SDS_P2;PMS_P1;PMS_P2;Temp;Humidity;BMP_temperature;BMP_pressure;BME280_temperature;BME280_humidity;BME280_pressure;Samples;Min_cycle;Max_cycle;Signal;HPM_P1;HPM_P2
2023/04/01 00:00:42;;;;;;;17.10;5.13;;;;;;;;;;4949547;28;20133;-72
2023/04/01 00:03:09;;;;;;;14.35;4.70;;;;;;;;;;4946545;28;20248;-74
2023/04/01 00:05:37;;;;;;;16.80;4.95;;;;;;;;;;4946849;28;22300;-73
2023/04/01 00:08:06;;;;;;;15.07;5.88;;;;;;;;;;4953281;28;20030;-74
2023/04/01 00:10:33;;;;;;;17.23;7.00;;;;;;;;;;4952719;28;20407;-74
2023/04/01 00:13:01;;;;;;;16.08;5.40;;;;;;;;;;4948916;28;20186;-72
2023/04/01 00:15:30;;;;;;;14.25;5.35;;;;;;;;;;4936104;28;20469;-72
2023/04/01 00:17:58;;;;;;;15.93;5.20;;;;;;;;;;4930993;28;20038;-72
2023/04/01 00:20:26;;;;;;;17.05;5.60;;;;;;;;;;4951856;28;20050;-72
2023/04/01 00:22:54;;;;;;;16.00;5.32;;;;;;;;;;4920784;28;20038;-73
2023/04/01 00:25:22;;;;;;;16.25;5.43;;;;;;;;;;4935332;28;20588;-72
2023/04/01 00:27:50;;;;;;;17.73;5.32;;;;;;;;;;4936416;28;20564;-72
2023/04/01 00:30:19;;;;;;;16.33;5.40;;;;;;;;;;4933195;28;20560;-72
2023/04/01 00:32:48;;;;;;;18.15;5.07;;;;;;;;;;4930321;28;20038;-72
2023/04/01 00:35:14;;;;;;;15.63;5.72;;;;;;;;;;4933499;28;20457;-72
2023/04/01 00:37:41;;;;;;;;;;;;;;;;;;4948891;28;20124;-73
2023/04/01 00:40:21;;;;;;;18.35;5.55;;;;;;;;;;4935874;28;19914;-73
2023/04/01 00:42:48;;;;;;;18.27;5.85;;;;;;;;;;4933600;28;20034;-73
2023/04/01 00:45:33;;;;;;;16.33;5.45;;;;;;;;;;4950010;28;20018;-75
2023/04/01 00:48:07;;;;;;;16.75;5.82;;;;;;;;;;4949107;28;20022;-73
2023/04/01 00:50:44;;;;;;;19.45;6.20;;;;;;;;;;4955420;28;20038;-74
2023/04/01 00:53:12;;;;;;;18.90;5.72;;;;;;;;;;4947330;28;20373;-74
2023/04/01 00:55:51;;;;;;;20.95;6.13;;;;;;;;;;4947058;28;20815;-75
2023/04/01 00:58:25;;;;;;;19.52;6.15;;;;;;;;;;4950123;28;20453;-74
2023/04/01 01:00:51;;;;;;;17.58;6.15;;;;;;;;;;4930482;28;20042;-73
2023/04/01 01:03:20;;;;;;;18.35;6.00;;;;;;;;;;4949963;28;20043;-73
2023/04/01 01:06:02;;;;;;;19.98;6.10;;;;;;;;;;4953095;28;20511;-73
2023/04/01 01:08:32;;;;;;;16.25;5.25;;;;;;;;;;4953053;28;20042;-73
2023/04/01 01:11:00;;;;;;;17.95;5.35;;;;;;;;;;4935321;28;20363;-73
2023/04/01 01:13:35;;;;;;;18.73;6.20;;;;;;;;;;4934176;28;20031;-73
2023/04/01 01:16:06;;;;;;;19.73;5.85;;;;;;;;;;4935277;28;20218;-73
2023/04/01 01:18:54;;;;;;;20.73;6.78;;;;;;;;;;4955364;28;20120;-73
2023/04/01 01:21:48;;;;;;;15.70;5.40;;;;;;;;;;4938111;28;20038;-73
2023/04/01 01:24:17;;;;;;;18.13;6.32;;;;;;;;;;4951820;28;20785;-73
2023/04/01 01:26:53;;;;;;;23.15;6.50;;;;;;;;;;4943737;28;20043;-73
2023/04/01 01:29:37;;;;;;;18.30;6.50;;;;;;;;;;4947691;28;20019;-73
2023/04/01 01:32:06;;;;;;;20.80;7.13;;;;;;;;;;4946476;28;20027;-73
2023/04/01 01:34:52;;;;;;;18.38;6.20;;;;;;;;;;4952966;28;20030;-73
2023/04/01 01:37:22;;;;;;;17.27;6.22;;;;;;;;;;4955488;28;20575;-73
2023/04/01 01:39:53;;;;;;;19.20;6.72;;;;;;;;;;4919303;28;20042;-74
2023/04/01 01:42:22;;;;;;;20.42;6.75;;;;;;;;;;4938299;28;20389;-74
2023/04/01 01:44:52;;;;;;;18.13;6.30;;;;;;;;;;4937454;28;20335;-75
2023/04/01 01:47:21;;;;;;;17.83;6.53;;;;;;;;;;4941035;28;20053;-74
2023/04/01 01:49:50;;;;;;;21.00;7.18;;;;;;;;;;4935937;28;20039;-72
2023/04/01 01:52:19;;;;;;;16.05;6.10;;;;;;;;;;4926162;28;20057;-72
2023/04/01 01:54:52;;;;;;;20.25;6.30;;;;;;;;;;4951928;28;20588;-73
2023/04/01 01:57:21;;;;;;;18.27;6.47;;;;;;;;;;4953227;28;20106;-75
2023/04/01 01:59:49;;;;;;;19.77;6.60;;;;;;;;;;4936331;28;20038;-75
2023/04/01 02:02:17;;;;;;;27.80;8.15;;;;;;;;;;4949957;28;20034;-72
2023/04/01 02:04:50;;;;;;;20.13;7.15;;;;;;;;;;4935693;28;20100;-73
2023/04/01 02:07:24;;;;;;;18.30;6.55;;;;;;;;;;4956991;28;20034;-73
2023/04/01 02:09:52;;;;;;;17.85;6.40;;;;;;;;;;4952229;28;20050;-73
2023/04/01 02:12:21;;;;;;;21.90;6.95;;;;;;;;;;4950612;28;20029;-73
2023/04/01 02:15:18;;;;;;;21.38;6.30;;;;;;;;;;4950983;28;20618;-73
2023/04/01 02:17:47;;;;;;;22.83;6.72;;;;;;;;;;4859276;29;20053;-74
2023/04/01 02:20:16;;;;;;;18.77;7.03;;;;;;;;;;4859182;29;20036;-73
2023/04/01 02:22:45;;;;;;;19.65;7.43;;;;;;;;;;4857621;29;20123;-73
2023/04/01 02:25:14;;;;;;;16.58;6.63;;;;;;;;;;4861494;29;20036;-72
2023/04/01 02:27:43;;;;;;;19.92;7.28;;;;;;;;;;4856240;29;20060;-72
2023/04/01 02:30:10;;;;;;;20.23;6.60;;;;;;;;;;4846264;29;20063;-73
2023/04/01 02:32:39;;;;;;;19.13;7.13;;;;;;;;;;4913924;28;20797;-72
2023/04/01 02:35:10;;;;;;;16.80;6.60;;;;;;;;;;4954287;28;20018;-72
2023/04/01 02:37:36;;;;;;;25.85;6.95;;;;;;;;;;4955575;28;20361;-72
2023/04/01 02:40:07;;;;;;;23.98;7.65;;;;;;;;;;4937873;28;20039;-73
2023/04/01 02:42:35;;;;;;;19.98;6.63;;;;;;;;;;4925308;28;20566;-73
2023/04/01 02:45:08;;;;;;;19.75;7.25;;;;;;;;;;4958632;28;20421;-72
2023/04/01 02:47:38;;;;;;;23.85;7.10;;;;;;;;;;4942181;28;20030;-72
2023/04/01 02:50:06;;;;;;;19.08;7.25;;;;;;;;;;4959107;28;20050;-72
2023/04/01 02:52:34;;;;;;;19.88;6.97;;;;;;;;;;4951125;28;20035;-73
2023/04/01 02:55:03;;;;;;;18.40;6.45;;;;;;;;;;4939040;28;20124;-73
2023/04/01 02:57:31;;;;;;;20.27;7.28;;;;;;;;;;4958907;28;20027;-73
2023/04/01 03:00:00;;;;;;;20.27;7.13;;;;;;;;;;4957556;28;21030;-72
2023/04/01 03:02:28;;;;;;;19.23;6.95;;;;;;;;;;4964147;28;20328;-72
2023/04/01 03:04:59;;;;;;;20.63;7.43;;;;;;;;;;4943842;28;20571;-73
2023/04/01 03:07:26;;;;;;;18.73;7.65;;;;;;;;;;4961663;28;20078;-73
2023/04/01 03:09:55;;;;;;;21.42;7.38;;;;;;;;;;4955903;28;20064;-74
2023/04/01 03:12:23;;;;;;;18.10;6.63;;;;;;;;;;4959275;28;20212;-73
2023/04/01 03:14:50;;;;;;;17.63;6.65;;;;;;;;;;4959222;28;20385;-73
2023/04/01 03:17:18;;;;;;;21.75;7.45;;;;;;;;;;4959052;28;20022;-73
2023/04/01 03:19:47;;;;;;;21.50;7.03;;;;;;;;;;4954310;28;20624;-72
2023/04/01 03:22:15;;;;;;;24.60;7.40;;;;;;;;;;4938571;28;20076;-72
2023/04/01 03:24:41;;;;;;;20.45;6.93;;;;;;;;;;4953772;28;20026;-73
2023/04/01 03:27:07;;;;;;;;;;;;;;;;;;4953982;28;20037;-73
2023/04/01 03:29:36;;;;;;;17.15;5.95;;;;;;;;;;4939868;28;20135;-75
2023/04/01 03:32:03;;;;;;;20.45;6.05;;;;;;;;;;4962084;28;20034;-76
2023/04/01 03:34:32;;;;;;;20.58;7.22;;;;;;;;;;4956266;28;21094;-73
2023/04/01 03:37:00;;;;;;;19.20;6.80;;;;;;;;;;4942626;28;20026;-73
2023/04/01 03:39:27;;;;;;;17.85;6.40;;;;;;;;;;4954308;28;20466;-74
2023/04/01 03:41:54;;;;;;;18.35;6.40;;;;;;;;;;4939906;28;20026;-74
2023/04/01 03:44:21;;;;;;;17.63;6.40;;;;;;;;;;4958633;28;20283;-74
2023/04/01 03:46:49;;;;;;;22.88;7.35;;;;;;;;;;4950809;28;20034;-74
2023/04/01 03:49:16;;;;;;;20.20;7.13;;;;;;;;;;4941462;28;20030;-73
2023/04/01 03:51:43;;;;;;;22.67;6.80;;;;;;;;;;4934298;28;20425;-73
2023/04/01 03:54:11;;;;;;;19.77;6.63;;;;;;;;;;4955121;28;20751;-73
2023/04/01 03:56:40;;;;;;;17.88;6.60;;;;;;;;;;4951117;28;20612;-73
2023/04/01 03:59:08;;;;;;;20.83;6.90;;;;;;;;;;4952793;28;20035;-74
2023/04/01 04:01:36;;;;;;;21.25;6.93;;;;;;;;;;4956773;28;20046;-74
2023/04/01 04:04:04;;;;;;;21.83;7.75;;;;;;;;;;4931561;28;20042;-75
2023/04/01 04:06:33;;;;;;;21.95;7.38;;;;;;;;;;4954889;28;20279;-73
2023/04/01 04:09:00;;;;;;;19.25;6.43;;;;;;;;;;4937483;28;20035;-73
2023/04/01 04:11:29;;;;;;;20.30;6.63;;;;;;;;;;4936697;28;20561;-74
2023/04/01 04:13:57;;;;;;;21.88;6.82;;;;;;;;;;4950671;28;20038;-73
2023/04/01 04:16:25;;;;;;;22.98;6.15;;;;;;;;;;4952550;28;20559;-73
2023/04/01 04:18:52;;;;;;;20.90;6.70;;;;;;;;;;4947117;28;20201;-73
2023/04/01 04:21:18;;;;;;;15.48;5.82;;;;;;;;;;4952025;28;20185;-73
2023/04/01 04:23:45;;;;;;;;;;;;;;;;;;4933945;28;20084;-72
2023/04/01 04:26:15;;;;;;;19.50;6.35;;;;;;;;;;4954882;28;19926;-72
2023/04/01 04:28:43;;;;;;;18.13;6.72;;;;;;;;;;4948500;28;20029;-73
2023/04/01 04:31:12;;;;;;;18.65;7.15;;;;;;;;;;4922866;28;20041;-72
2023/04/01 04:33:40;;;;;;;18.95;6.93;;;;;;;;;;4950112;28;20150;-73
2023/04/01 04:36:08;;;;;;;20.00;7.45;;;;;;;;;;4955515;28;20030;-72
2023/04/01 04:38:36;;;;;;;22.92;7.28;;;;;;;;;;4954422;28;20069;-75
2023/04/01 04:41:10;;;;;;;22.35;7.90;;;;;;;;;;4952665;28;20030;-74
2023/04/01 04:43:43;;;;;;;22.27;7.93;;;;;;;;;;4954204;28;20082;-73
2023/04/01 04:46:11;;;;;;;21.02;7.22;;;;;;;;;;4949583;28;20036;-73
2023/04/01 04:48:39;;;;;;;21.13;7.18;;;;;;;;;;4939741;28;20022;-72
2023/04/01 04:51:06;;;;;;;21.80;6.70;;;;;;;;;;4954371;28;20404;-73
2023/04/01 04:53:34;;;;;;;17.25;6.75;;;;;;;;;;4936090;28;20034;-73
2023/04/01 04:56:01;;;;;;;20.08;7.25;;;;;;;;;;4950795;28;20518;-73
2023/04/01 04:58:30;;;;;;;20.50;7.10;;;;;;;;;;4935029;28;21169;-75
2023/04/01 05:00:58;;;;;;;18.60;6.20;;;;;;;;;;4933524;28;20050;-75
2023/04/01 05:03:24;;;;;;;17.75;6.35;;;;;;;;;;4950290;28;20485;-74
2023/04/01 05:05:55;;;;;;;21.05;7.03;;;;;;;;;;4946125;28;20034;-72
2023/04/01 05:08:22;;;;;;;22.95;7.00;;;;;;;;;;4938002;28;21403;-76
2023/04/01 05:10:49;;;;;;;22.27;7.53;;;;;;;;;;4937647;28;20046;-75
2023/04/01 05:13:16;;;;;;;21.20;7.60;;;;;;;;;;4960417;28;20959;-74
2023/04/01 05:15:44;;;;;;;20.17;7.50;;;;;;;;;;4955215;28;20495;-73
2023/04/01 05:18:12;;;;;;;20.05;7.15;;;;;;;;;;4962293;28;20336;-74
2023/04/01 05:20:40;;;;;;;18.48;6.95;;;;;;;;;;4957759;28;20039;-74
2023/04/01 05:23:08;;;;;;;24.00;7.05;;;;;;;;;;4961134;28;20038;-72
2023/04/01 05:25:38;;;;;;;20.70;6.53;;;;;;;;;;4941967;28;20049;-75
2023/04/01 05:28:07;;;;;;;23.45;7.53;;;;;;;;;;4945078;28;20071;-75
2023/04/01 05:30:35;;;;;;;21.85;7.40;;;;;;;;;;4961984;28;20586;-74
2023/04/01 05:33:03;;;;;;;21.98;8.10;;;;;;;;;;4942791;28;20057;-73
2023/04/01 05:35:31;;;;;;;21.02;7.40;;;;;;;;;;4957065;28;20034;-73
2023/04/01 05:37:59;;;;;;;25.00;7.75;;;;;;;;;;4958404;28;20136;-74
2023/04/01 05:40:26;;;;;;;23.25;8.27;;;;;;;;;;4962135;28;20174;-75
2023/04/01 05:42:54;;;;;;;23.23;8.48;;;;;;;;;;4954361;28;20069;-73
2023/04/01 05:45:21;;;;;;;28.55;11.00;;;;;;;;;;4940004;28;20363;-74
2023/04/01 05:47:50;;;;;;;22.13;10.07;;;;;;;;;;4950644;28;20492;-75
2023/04/01 05:50:17;;;;;;;22.45;11.57;;;;;;;;;;4956160;28;20078;-74
2023/04/01 05:52:46;;;;;;;30.80;13.07;;;;;;;;;;4955914;28;20037;-73
2023/04/01 05:55:13;;;;;;;30.75;12.25;;;;;;;;;;4959020;28;20776;-73
2023/04/01 05:57:40;;;;;;;30.83;12.02;;;;;;;;;;4955904;28;20559;-73
2023/04/01 06:00:07;;;;;;;28.23;11.80;;;;;;;;;;4915627;28;20039;-73
2023/04/01 06:02:37;;;;;;;26.05;10.48;;;;;;;;;;4917986;28;20055;-73
2023/04/01 06:05:25;;;;;;;24.02;9.68;;;;;;;;;;4919612;28;20616;-73
2023/04/01 06:08:05;;;;;;;24.15;9.32;;;;;;;;;;4916321;28;20122;-73
2023/04/01 06:10:46;;;;;;;27.33;9.63;;;;;;;;;;4915258;28;20051;-74
2023/04/01 06:13:21;;;;;;;23.17;8.52;;;;;;;;;;4914697;28;20042;-72
2023/04/01 06:16:08;;;;;;;21.80;9.20;;;;;;;;;;4895683;29;20051;-73
2023/04/01 06:18:54;;;;;;;29.35;11.13;;;;;;;;;;4919143;28;20036;-73
2023/04/01 06:21:39;;;;;;;31.70;11.77;;;;;;;;;;4912663;28;20036;-73
2023/04/01 06:24:18;;;;;;;23.63;9.90;;;;;;;;;;4920056;28;20371;-73
2023/04/01 06:27:13;;;;;;;27.38;10.57;;;;;;;;;;4909697;28;20131;-73
2023/04/01 06:30:04;;;;;;;26.83;9.77;;;;;;;;;;4824608;29;20041;-73
2023/04/01 06:32:50;;;;;;;19.63;8.13;;;;;;;;;;4736938;30;20124;-74
2023/04/01 06:35:23;;;;;;;23.67;9.45;;;;;;;;;;4740017;30;20067;-75
2023/04/01 06:38:08;;;;;;;24.00;9.02;;;;;;;;;;4743956;30;20579;-74
2023/04/01 06:40:53;;;;;;;27.42;9.10;;;;;;;;;;4724196;30;20131;-72
2023/04/01 06:43:39;;;;;;;27.15;9.18;;;;;;;;;;4739370;30;20055;-74
2023/04/01 06:46:13;;;;;;;26.17;8.13;;;;;;;;;;4725210;30;20557;-74
2023/04/01 06:48:57;;;;;;;23.17;7.80;;;;;;;;;;4735947;30;20272;-74
2023/04/01 06:51:54;;;;;;;20.92;6.80;;;;;;;;;;4763247;29;20089;-74
2023/04/01 06:54:32;;;;;;;22.30;7.47;;;;;;;;;;4766412;29;21154;-74
2023/04/01 06:57:03;;;;;;;20.80;8.15;;;;;;;;;;4764851;29;20047;-74
2023/04/01 06:59:32;;;;;;;24.45;8.13;;;;;;;;;;4766580;29;20413;-74
2023/04/01 07:02:17;;;;;;;32.53;11.55;;;;;;;;;;4770770;29;20684;-74
2023/04/01 07:04:47;;;;;;;22.58;8.02;;;;;;;;;;4768088;29;20102;-75
2023/04/01 07:07:17;;;;;;;25.00;8.80;;;;;;;;;;4837781;29;20071;-75
2023/04/01 07:09:51;;;;;;;26.25;9.20;;;;;;;;;;4906430;28;20124;-74
2023/04/01 07:12:39;;;;;;;26.42;10.80;;;;;;;;;;4936764;28;20043;-74
2023/04/01 07:15:28;;;;;;;28.20;9.98;;;;;;;;;;4954941;28;20188;-73
2023/04/01 07:18:09;;;;;;;24.08;9.27;;;;;;;;;;4935287;28;20480;-74
2023/04/01 07:20:39;;;;;;;32.60;9.52;;;;;;;;;;4942321;28;20038;-75
2023/04/01 07:23:24;;;;;;;25.45;10.57;;;;;;;;;;4953896;28;20137;-75
2023/04/01 07:26:04;;;;;;;25.33;7.60;;;;;;;;;;4951006;28;20042;-75
2023/04/01 07:28:33;;;;;;;25.10;6.68;;;;;;;;;;4940684;28;20637;-74
2023/04/01 07:31:19;;;;;;;22.30;5.55;;;;;;;;;;4938320;28;20338;-74
2023/04/01 07:34:13;;;;;;;23.40;6.50;;;;;;;;;;4951293;28;20383;-75
2023/04/01 07:37:01;;;;;;;24.55;6.18;;;;;;;;;;4856982;29;20060;-74
2023/04/01 07:39:48;;;;;;;19.95;6.00;;;;;;;;;;4862684;29;20091;-74
2023/04/01 07:42:33;;;;;;;20.15;5.60;;;;;;;;;;4863194;29;20178;-75
2023/04/01 07:45:07;;;;;;;24.33;6.22;;;;;;;;;;4841806;29;20755;-77
2023/04/01 07:47:51;;;;;;;26.08;6.03;;;;;;;;;;4862076;29;20052;-78
2023/04/01 07:50:28;;;;;;;18.33;5.47;;;;;;;;;;4848362;29;20033;-76
2023/04/01 07:53:17;;;;;;;25.40;5.53;;;;;;;;;;4858553;29;20101;-79
2023/04/01 07:55:44;;;;;;;20.65;6.40;;;;;;;;;;4851711;29;20030;-79
2023/04/01 07:58:19;;;;;;;24.77;7.32;;;;;;;;;;4861639;29;20033;-78
2023/04/01 08:01:02;;;;;;;23.77;6.13;;;;;;;;;;4866907;29;20064;-78
2023/04/01 08:03:48;;;;;;;20.75;6.00;;;;;;;;;;4870508;29;20040;-78
2023/04/01 08:06:25;;;;;;;23.65;7.72;;;;;;;;;;4870843;29;20020;-77
2023/04/01 08:09:17;;;;;;;24.25;8.38;;;;;;;;;;4853387;29;20096;-79
2023/04/01 08:12:01;;;;;;;21.42;7.78;;;;;;;;;;4816622;29;20046;-79
2023/04/01 08:14:32;;;;;;;25.25;8.15;;;;;;;;;;4874095;29;20586;-77
2023/04/01 08:17:17;;;;;;;26.60;9.38;;;;;;;;;;4879840;29;20699;-77
2023/04/01 08:20:02;;;;;;;27.88;8.30;;;;;;;;;;4876222;29;20036;-78
2023/04/01 08:22:55;;;;;;;24.40;8.00;;;;;;;;;;4880338;29;20087;-76
2023/04/01 08:25:25;;;;;;;24.55;9.43;;;;;;;;;;4823292;29;20134;-78
2023/04/01 08:28:01;;;;;;;23.73;7.78;;;;;;;;;;4804520;29;20048;-78
2023/04/01 08:30:53;;;;;;;25.33;7.83;;;;;;;;;;4820122;29;20049;-76
2023/04/01 08:33:27;;;;;;;21.70;6.97;;;;;;;;;;4790594;29;20091;-77
2023/04/01 08:36:11;;;;;;;25.35;7.25;;;;;;;;;;4783348;29;20103;-78
2023/04/01 08:39:04;;;;;;;22.15;7.10;;;;;;;;;;4788242;29;20408;-78
2023/04/01 08:41:51;;;;;;;20.85;6.20;;;;;;;;;;4785862;29;20084;-75
2023/04/01 08:44:37;;;;;;;22.63;6.63;;;;;;;;;;4785196;29;20107;-77
2023/04/01 08:47:23;;;;;;;24.02;7.30;;;;;;;;;;4786002;29;20046;-78
2023/04/01 08:50:18;;;;;;;23.10;7.85;;;;;;;;;;4837846;29;20041;-78
2023/04/01 08:53:13;;;;;;;25.38;8.65;;;;;;;;;;4841215;29;20574;-77
2023/04/01 08:55:42;;;;;;;28.13;8.68;;;;;;;;;;4824183;29;20058;-77
2023/04/01 08:58:28;;;;;;;26.85;8.93;;;;;;;;;;4826765;29;20049;-77
2023/04/01 09:01:09;;;;;;;27.38;8.70;;;;;;;;;;4822863;29;20076;-77
2023/04/01 09:03:55;;;;;;;24.90;8.38;;;;;;;;;;4850367;29;20044;-81
2023/04/01 09:06:39;;;;;;;23.00;7.45;;;;;;;;;;4835487;29;20044;-81
2023/04/01 09:09:25;;;;;;;19.23;6.80;;;;;;;;;;4847277;29;20041;-81
2023/04/01 09:12:10;;;;;;;19.30;7.40;;;;;;;;;;4869635;29;20601;-81
2023/04/01 09:14:47;;;;;;;20.02;7.30;;;;;;;;;;4891384;29;20127;-82
2023/04/01 09:17:32;;;;;;;19.60;6.53;;;;;;;;;;4900909;29;20064;-81
2023/04/01 09:20:17;;;;;;;27.40;7.38;;;;;;;;;;4881414;29;20048;-82
2023/04/01 09:23:03;;;;;;;24.75;7.13;;;;;;;;;;4889937;29;20084;-82
2023/04/01 09:25:49;;;;;;;19.23;6.82;;;;;;;;;;4893808;29;20052;-82
2023/04/01 09:28:34;;;;;;;25.07;7.93;;;;;;;;;;4902269;29;20557;-82
2023/04/01 09:31:20;;;;;;;18.55;6.78;;;;;;;;;;4910555;29;20652;-82
2023/04/01 09:34:05;;;;;;;22.02;7.57;;;;;;;;;;4932711;28;20371;-81
2023/04/01 09:36:45;;;;;;;27.42;7.47;;;;;;;;;;4953793;28;20038;-82
2023/04/01 09:39:31;;;;;;;20.65;6.15;;;;;;;;;;4941766;28;20035;-81
2023/04/01 09:42:17;;;;;;;16.88;5.18;;;;;;;;;;4937591;28;20515;-81
2023/04/01 09:44:57;;;;;;;17.95;6.18;;;;;;;;;;4920369;28;21282;-81
2023/04/01 09:47:40;;;;;;;17.60;7.03;;;;;;;;;;4943218;28;20030;-80
2023/04/01 09:50:25;;;;;;;20.30;6.32;;;;;;;;;;4943051;28;20233;-79
2023/04/01 09:53:06;;;;;;;17.65;5.95;;;;;;;;;;4918781;28;20549;-84
2023/04/01 09:55:50;;;;;;;17.35;5.18;;;;;;;;;;4946038;28;20027;-81
2023/04/01 09:58:36;;;;;;;20.48;8.15;;;;;;;;;;4947826;28;20027;-80
2023/04/01 10:01:04;;;;;;;;;;;;;;;;;;4948511;28;20034;-80
2023/04/01 10:03:58;;;;;;;19.25;6.45;;;;;;;;;;4927400;28;19941;-81
2023/04/01 10:06:44;;;;;;;20.27;6.60;;;;;;;;;;4946953;28;20042;-80
2023/04/01 10:09:16;;;;;;;15.15;5.38;;;;;;;;;;4947639;28;20070;-82
2023/04/01 10:12:01;;;;;;;17.45;6.28;;;;;;;;;;4946250;28;20034;-81
2023/04/01 10:14:48;;;;;;;19.65;5.13;;;;;;;;;;4942077;28;20043;-80
2023/04/01 10:17:34;;;;;;;16.02;5.35;;;;;;;;;;4929008;28;20473;-82
2023/04/01 10:20:02;;;;;;;;;;;;;;;;;;4936223;28;20062;-80
2023/04/01 10:22:47;;;;;;;17.92;5.78;;;;;;;;;;4940227;28;19926;-82
2023/04/01 10:25:33;;;;;;;20.08;6.03;;;;;;;;;;4923995;28;20046;-81
2023/04/01 10:28:15;;;;;;;17.35;5.38;;;;;;;;;;4934163;28;20725;-80
2023/04/01 10:31:14;;;;;;;16.55;5.07;;;;;;;;;;4937210;28;20027;-82
2023/04/01 10:34:00;;;;;;;18.92;4.93;;;;;;;;;;4843369;29;20173;-81
2023/04/01 10:36:52;;;;;;;18.63;5.47;;;;;;;;;;4849515;29;20053;-79
2023/04/01 10:39:37;;;;;;;16.15;5.15;;;;;;;;;;4844415;29;21089;-81
2023/04/01 10:42:19;;;;;;;18.42;5.50;;;;;;;;;;4847300;29;20041;-81
2023/04/01 10:45:05;;;;;;;21.88;6.18;;;;;;;;;;4843014;29;20448;-82
2023/04/01 10:47:51;;;;;;;17.88;5.55;;;;;;;;;;4845860;29;20496;-81
2023/04/01 10:50:20;;;;;;;16.40;5.20;;;;;;;;;;4847693;29;20419;-80
2023/04/01 10:53:06;;;;;;;15.80;5.90;;;;;;;;;;4839769;29;20525;-81
2023/04/01 10:55:34;;;;;;;;;;;;;;;;;;4845528;29;20597;-79
2023/04/01 10:58:20;;;;;;;13.50;5.30;;;;;;;;;;4840157;29;20430;-81
2023/04/01 11:01:07;;;;;;;14.63;4.93;;;;;;;;;;4844533;29;20040;-81
2023/04/01 11:03:53;;;;;;;18.40;5.10;;;;;;;;;;4845143;29;20709;-82
2023/04/01 11:06:19;;;;;;;;;;;;;;;;;;4847663;29;20048;-81
2023/04/01 11:09:06;;;;;;;17.92;5.63;;;;;;;;;;4868079;28;20097;-81
2023/04/01 11:11:51;;;;;;;14.95;5.13;;;;;;;;;;4936270;28;20035;-81
2023/04/01 11:14:37;;;;;;;19.05;5.53;;;;;;;;;;4936682;28;21159;-81
2023/04/01 11:17:30;;;;;;;14.18;5.50;;;;;;;;;;4939180;28;20038;-80
2023/04/01 11:20:16;;;;;;;14.60;5.25;;;;;;;;;;4921036;28;20042;-83
2023/04/01 11:23:02;;;;;;;15.52;5.75;;;;;;;;;;4919434;28;20607;-81
2023/04/01 11:25:45;;;;;;;17.58;5.85;;;;;;;;;;4923483;28;20591;-81
2023/04/01 11:28:31;;;;;;;14.75;5.53;;;;;;;;;;4919541;28;20117;-81
2023/04/01 11:30:59;;;;;;;;;;;;;;;;;;4933941;28;20147;-81
2023/04/01 11:33:57;;;;;;;13.63;5.18;;;;;;;;;;4965404;28;19949;-80
2023/04/01 11:36:36;;;;;;;17.38;5.80;;;;;;;;;;4867904;29;20051;-80
2023/04/01 11:39:21;;;;;;;18.88;6.70;;;;;;;;;;4877799;29;20715;-80
2023/04/01 11:42:07;;;;;;;19.10;6.03;;;;;;;;;;4876268;29;20323;-81
2023/04/01 11:44:35;;;;;;;;;;;;;;;;;;4869717;29;20059;-75
2023/04/01 11:47:26;;;;;;;20.52;5.25;;;;;;;;;;4887937;29;19922;-76
2023/04/01 11:50:12;;;;;;;14.95;5.10;;;;;;;;;;4884349;29;20040;-77
2023/04/01 11:52:38;;;;;;;;;;;;;;;;;;4884206;29;20078;-75
2023/04/01 11:55:24;;;;;;;16.13;5.35;;;;;;;;;;4885578;29;19970;-76
2023/04/01 11:58:12;;;;;;;14.73;5.10;;;;;;;;;;4875607;29;20036;-77
2023/04/01 12:00:45;;;;;;;17.70;5.72;;;;;;;;;;4876433;29;20051;-76
2023/04/01 12:03:31;;;;;;;14.75;4.95;;;;;;;;;;4872864;29;20930;-75
2023/04/01 12:06:17;;;;;;;16.67;4.93;;;;;;;;;;4872021;29;20475;-76
2023/04/01 12:08:44;;;;;;;;;;;;;;;;;;4875600;29;20032;-76
2023/04/01 12:11:30;;;;;;;14.23;4.95;;;;;;;;;;4876552;29;20398;-75
2023/04/01 12:14:14;;;;;;;13.40;5.13;;;;;;;;;;4943056;28;20552;-76
2023/04/01 12:17:04;;;;;;;14.23;4.65;;;;;;;;;;4951885;28;20038;-77
2023/04/01 12:19:44;;;;;;;17.08;4.90;;;;;;;;;;4939964;28;20577;-76
2023/04/01 12:22:13;;;;;;;15.50;5.40;;;;;;;;;;4952876;28;20085;-76
2023/04/01 12:24:51;;;;;;;14.20;5.13;;;;;;;;;;4952330;28;20072;-75
2023/04/01 12:27:30;;;;;;;17.88;5.22;;;;;;;;;;4939990;28;20472;-77
2023/04/01 12:30:26;;;;;;;17.88;5.70;;;;;;;;;;4953307;28;20171;-77
2023/04/01 12:33:12;;;;;;;15.82;4.60;;;;;;;;;;4875158;29;20876;-77
2023/04/01 12:35:57;;;;;;;13.05;4.68;;;;;;;;;;4878216;29;20048;-77
2023/04/01 12:38:42;;;;;;;15.18;4.80;;;;;;;;;;4879633;29;20036;-79
2023/04/01 12:41:45;;;;;;;11.20;4.35;;;;;;;;;;4879782;29;20043;-77
2023/04/01 12:44:28;;;;;;;13.75;4.32;;;;;;;;;;4805934;29;20040;-78
2023/04/01 12:47:15;;;;;;;13.27;4.90;;;;;;;;;;4801492;29;20517;-76
2023/04/01 12:50:02;;;;;;;14.18;4.88;;;;;;;;;;4800003;29;20781;-76
2023/04/01 12:52:37;;;;;;;15.10;4.45;;;;;;;;;;4802400;29;20216;-77
2023/04/01 12:55:24;;;;;;;17.67;4.68;;;;;;;;;;4799704;29;20049;-79
2023/04/01 12:58:08;;;;;;;13.77;4.53;;;;;;;;;;4801045;29;20053;-75
2023/04/01 13:01:07;;;;;;;16.58;4.40;;;;;;;;;;4803324;29;20037;-78
2023/04/01 13:03:54;;;;;;;13.05;4.38;;;;;;;;;;4778644;29;20256;-76
2023/04/01 13:06:30;;;;;;;13.90;4.38;;;;;;;;;;4802931;29;20512;-77
2023/04/01 13:09:17;;;;;;;14.52;4.95;;;;;;;;;;4812131;29;20052;-77
2023/04/01 13:12:03;;;;;;;15.57;4.72;;;;;;;;;;4842390;29;20037;-76
2023/04/01 13:14:44;;;;;;;15.07;5.32;;;;;;;;;;4846164;29;20378;-77
2023/04/01 13:17:30;;;;;;;13.50;4.72;;;;;;;;;;4861019;28;20033;-75
2023/04/01 13:20:15;;;;;;;12.85;4.13;;;;;;;;;;4952914;28;20037;-76
2023/04/01 13:23:01;;;;;;;14.15;4.85;;;;;;;;;;4949665;28;20402;-75
2023/04/01 13:25:43;;;;;;;13.18;4.50;;;;;;;;;;4937339;28;20054;-75
2023/04/01 13:28:25;;;;;;;14.20;4.53;;;;;;;;;;4954680;28;20073;-78
2023/04/01 13:31:10;;;;;;;13.60;5.07;;;;;;;;;;4953066;28;20033;-78
2023/04/01 13:34:06;;;;;;;11.25;4.20;;;;;;;;;;4954119;28;20469;-76
2023/04/01 13:36:53;;;;;;;13.30;3.88;;;;;;;;;;4944596;28;20060;-77
2023/04/01 13:39:38;;;;;;;13.23;4.53;;;;;;;;;;4945202;28;20065;-79
2023/04/01 13:42:22;;;;;;;11.48;3.90;;;;;;;;;;4960610;28;20108;-77
2023/04/01 13:45:25;;;;;;;12.80;4.25;;;;;;;;;;4954060;28;20365;-77
2023/04/01 13:48:09;;;;;;;14.43;4.47;;;;;;;;;;4879357;29;20662;-76
2023/04/01 13:50:55;;;;;;;11.13;4.28;;;;;;;;;;4883527;29;20495;-75
2023/04/01 13:53:22;;;;;;;12.43;4.20;;;;;;;;;;4883160;29;20058;-77
2023/04/01 13:56:04;;;;;;;15.20;4.15;;;;;;;;;;4882579;29;20040;-77
2023/04/01 13:58:49;;;;;;;13.43;4.18;;;;;;;;;;4882185;29;20545;-76
2023/04/01 14:01:34;;;;;;;14.23;3.75;;;;;;;;;;4883847;29;20036;-75
2023/04/01 14:04:08;;;;;;;12.13;3.88;;;;;;;;;;4858478;29;20420;-75
2023/04/01 14:06:53;;;;;;;11.40;3.70;;;;;;;;;;4881649;29;20119;-78
2023/04/01 14:09:31;;;;;;;14.68;4.95;;;;;;;;;;4882256;29;20127;-78
2023/04/01 14:12:20;;;;;;;12.95;4.28;;;;;;;;;;4880853;29;20152;-76
2023/04/01 14:15:06;;;;;;;15.30;4.45;;;;;;;;;;4845090;29;20036;-75
2023/04/01 14:17:50;;;;;;;11.52;4.10;;;;;;;;;;4863074;29;20039;-77
2023/04/01 14:20:36;;;;;;;9.97;3.47;;;;;;;;;;4883668;29;20962;-77
2023/04/01 14:23:22;;;;;;;10.60;3.88;;;;;;;;;;4902649;28;20536;-77
2023/04/01 14:26:08;;;;;;;11.15;3.80;;;;;;;;;;4955646;28;20030;-76
2023/04/01 14:28:52;;;;;;;12.15;4.15;;;;;;;;;;4960894;28;20499;-76
2023/04/01 14:31:24;;;;;;;15.48;3.78;;;;;;;;;;4959634;28;20035;-77
2023/04/01 14:34:11;;;;;;;15.45;4.13;;;;;;;;;;4939983;28;20318;-77
2023/04/01 14:36:58;;;;;;;10.00;4.03;;;;;;;;;;4959357;28;20042;-77
2023/04/01 14:39:43;;;;;;;11.18;3.90;;;;;;;;;;4955547;28;20104;-77
2023/04/01 14:42:41;;;;;;;13.07;4.35;;;;;;;;;;4957309;28;20034;-76
2023/04/01 14:45:27;;;;;;;11.48;3.72;;;;;;;;;;4935247;28;20415;-76
2023/04/01 14:48:11;;;;;;;12.20;3.80;;;;;;;;;;4914907;28;20093;-77
2023/04/01 14:50:48;;;;;;;10.43;3.30;;;;;;;;;;4935692;28;20090;-76
2023/04/01 14:53:35;;;;;;;10.82;3.63;;;;;;;;;;4923677;28;20470;-77
2023/04/01 14:56:03;;;;;;;11.52;3.47;;;;;;;;;;4933172;28;20031;-76
2023/04/01 14:58:51;;;;;;;10.35;3.38;;;;;;;;;;4942756;28;20031;-76
2023/04/01 15:01:34;;;;;;;11.05;3.40;;;;;;;;;;4939145;28;20074;-76
2023/04/01 15:04:20;;;;;;;10.63;3.25;;;;;;;;;;4931286;28;20409;-76
2023/04/01 15:07:22;;;;;;;12.77;3.88;;;;;;;;;;4929152;28;20846;-75
2023/04/01 15:10:07;;;;;;;13.02;3.72;;;;;;;;;;4903015;28;20106;-75
2023/04/01 15:13:00;;;;;;;13.37;3.53;;;;;;;;;;4934165;28;20456;-76
2023/04/01 15:15:57;;;;;;;14.40;3.72;;;;;;;;;;4921989;28;20149;-77
2023/04/01 15:18:43;;;;;;;14.00;3.60;;;;;;;;;;4878337;29;20048;-77
2023/04/01 15:21:40;;;;;;;10.48;3.53;;;;;;;;;;4876602;29;20035;-76
2023/04/01 15:24:19;;;;;;;11.65;3.50;;;;;;;;;;4866890;29;20039;-77
2023/04/01 15:27:08;;;;;;;14.52;3.90;;;;;;;;;;4875762;29;20112;-77
2023/04/01 15:29:54;;;;;;;11.05;3.88;;;;;;;;;;4876733;29;20209;-77
2023/04/01 15:32:40;;;;;;;14.13;4.53;;;;;;;;;;4882190;29;20036;-77
2023/04/01 15:35:26;;;;;;;9.55;3.33;;;;;;;;;;4878165;29;20052;-77